• Join FlightAware (Why Join?)
  • Login
  • US Flag 
09:33AM EDT


 

Airport Tracker/Info


-or-


 

Live Flight TrackerFlight Track Log ✈ VH-OWD ✈ 07-May-2013 ✈ YBRM / BME - YDBY / DRB

Flight Track Log - Related Links

Times and Time Zones

All times are in EDT time to prevent confusion due to time zone crossing. See the VH-OWD flight status page for this flight to view local times or setup timezone preferences in your user account.

Time Position Orientation Groundspeed Altitude Reporting Facility
EDT Latitude Longitude Course Direction KTS MPH feet Rate Location/Type
10:13AM -17.9539 122.3338 95° East 21,000  Level Aus ATC (Calculated)
10:14AM -17.9615 122.4324 63° Northeast 21,000  Level Aus ATC (Calculated)
10:16AM -17.9415 122.4745 63° Northeast  Level Estimated
10:16AM -17.9691 122.5309 360° North 21,000  Level Aus ATC (Calculated)
10:17AM -17.9691 122.5309 95° East 21,000  Level Aus ATC (Calculated)
10:18AM -17.9766 122.6295 298° West 21,000  Level Aus ATC (Calculated)
10:19AM -17.9474 122.5722 61° Northeast  Level Estimated
10:20AM -17.9544 122.6675 58° Northeast  Level Estimated
10:21AM -17.9393 122.6934 58° Northeast  Level Estimated
10:21AM -17.9914 122.8266 303° West 21,000  Level Aus ATC (Calculated)
10:22AM -17.9242 122.7193 58° Northeast  Level Estimated
10:23AM -17.9645 122.8630 52° Northeast  Level Estimated
10:24AM -17.9467 122.8870 52° Northeast  Level Estimated
10:25AM -17.9290 122.9109 52° Northeast  Level Estimated
10:26AM -17.9112 122.9349 52° Northeast  Level Estimated
10:27AM -17.8934 122.9589 52° Northeast  Level Estimated
10:28AM -17.8756 122.9828 52° Northeast  Level Estimated
10:29AM -17.8578 123.0068 52° Northeast  Level Estimated
10:29AM -18.0277 123.3196 304° West 21,000  Level Aus ATC (Calculated)
10:30AM -17.8400 123.0307 52° Northeast  Level Estimated
10:31AM -18.0005 123.3338 26° Northeast  Level Estimated
10:32AM -17.9746 123.3473 26° Northeast  Level Estimated
10:33AM -17.9487 123.3607 26° Northeast  Level Estimated
10:34AM -17.9227 123.3742 26° Northeast  Level Estimated
10:35AM -17.8968 123.3877 26° Northeast  Level Estimated
10:35AM -18.0558 123.7141 302° West 21,000  Level Aus ATC (Calculated)
10:36AM -17.8709 123.4012 26° Northeast  Level Estimated
10:37AM -18.0250 123.7117 356° North  Level Estimated
10:38AM -17.9962 123.7095 356° North  Level Estimated
10:39AM -17.9674 123.7072 356° North  Level Estimated
10:40AM -18.0753 123.9765 298° West 300  Level Aus ATC (Calculated)
10:40AM -17.9385 123.7049 356° North  Level Estimated
10:40AM -18.0795 124.0311 296° West 300  Level Aus ATC (Calculated)
10:41AM -18.0487 123.9646 337° Northwest  Level Estimated
10:41AM -18.0836 124.0857 300° West 300  Level Aus ATC (Calculated)
10:42AM -18.0441 124.0126 333° Northwest  Level Estimated
10:42AM -18.0919 124.1948 289° West 300  Level Aus ATC (Calculated)
10:43AM -18.0505 124.0659 330° Northwest  Level Estimated
10:43AM -18.0960 124.2494 295° West 300  Level Aus ATC (Calculated)
10:44AM -18.0608 124.1717 325° Northwest  Level Estimated
10:45AM -18.0716 124.2296 322° Northwest  Level Estimated
10:45AM -18.1082 124.4132 316° Northwest 300  Level Aus ATC (Calculated)
10:47AM -18.0810 124.3853 316° Northwest  Level Estimated
10:48AM -18.0603 124.3640 316° Northwest  Level Estimated
10:49AM -18.0396 124.3428 316° Northwest  Level Estimated
10:50AM -18.0188 124.3216 316° Northwest  Level Estimated
10:51AM -17.9981 124.3004 316° Northwest  Level Estimated
10:52AM -17.9774 124.2792 316° Northwest  Level Estimated
10:52AM -18.1441 124.9047 287° West 300  Level Aus ATC (Calculated)
10:53AM -17.9567 124.2580 316° Northwest  Level Estimated
10:54AM -18.1184 124.8630 303° West  Level Estimated
10:55AM -18.1027 124.8375 303° West  Level Estimated
10:55AM -18.1597 125.1232 299° West 300  Level Aus ATC (Calculated)
10:57AM -18.1316 125.0706 299° West  Level Estimated
10:58AM -18.1174 125.0441 299° West  Level Estimated
10:59AM -18.1032 125.0175 299° West  Level Estimated
11:00AM -18.0890 124.9910 299° West  Level Estimated
11:01AM -18.0749 124.9645 299° West  Level Estimated
11:02AM -18.0607 124.9380 299° West  Level Estimated
11:03AM -18.0465 124.9115 299° West  Level Estimated
11:04AM -18.0323 124.8850 299° West  Level Estimated
11:05AM -18.0181 124.8585 299° West  Level Estimated
11:06AM -18.0039 124.8320 299° West  Level Estimated
11:07AM -17.9897 124.8056 299° West  Level Estimated
11:08AM -17.9755 124.7791 299° West  Level Estimated
11:09AM -17.9613 124.7526 299° West  Level Estimated